createdAt,value
2019-04-21T00:01:00.383Z,24.63
2019-04-21T00:03:36.682Z,25.48
2019-04-21T00:06:18.650Z,26.37
2019-04-21T00:08:52.502Z,24.27
2019-04-21T00:11:22.434Z,23.47
2019-04-21T00:13:46.988Z,23.57
2019-04-21T00:16:10.856Z,24.90
2019-04-21T00:19:03.286Z,25.48
2019-04-21T00:21:39.642Z,26.93
2019-04-21T00:24:34.762Z,23.22
2019-04-21T00:27:01.940Z,26.80
2019-04-21T00:29:37.999Z,23.18
2019-04-21T00:32:06.818Z,23.87
2019-04-21T00:34:21.734Z,23.55
2019-04-21T00:37:03.078Z,21.93
2019-04-21T00:42:18.420Z,22.85
2019-04-21T00:44:51.095Z,22.87
2019-04-21T00:47:26.660Z,25.75
2019-04-21T00:49:56.849Z,28.67
2019-04-21T00:52:56.250Z,22.95
2019-04-21T00:55:35.558Z,26.25
2019-04-21T00:58:02.259Z,27.65
2019-04-21T01:00:34.549Z,22.48
2019-04-21T01:03:09.325Z,22.22
2019-04-21T01:05:43.942Z,22.65
2019-04-21T01:08:11.486Z,24.33
2019-04-21T01:10:31.122Z,23.45
2019-04-21T01:13:18.769Z,28.98
2019-04-21T01:15:49.039Z,24.10
2019-04-21T01:18:16.844Z,26.42
2019-04-21T01:20:24.583Z,25.30
2019-04-21T01:22:54.034Z,22.20
2019-04-21T01:25:32.147Z,22.75
2019-04-21T01:28:13.528Z,22.83
2019-04-21T01:30:50.627Z,25.57
2019-04-21T01:35:48.526Z,23.27
2019-04-21T01:38:32.776Z,22.48
2019-04-21T01:41:03.078Z,28.07
2019-04-21T01:43:31.033Z,28.92
2019-04-21T01:45:53.921Z,26.90
2019-04-21T01:48:28.979Z,23.20
2019-04-21T01:50:58.145Z,24.52
2019-04-21T01:53:38.548Z,24.85
2019-04-21T01:56:17.197Z,25.12
2019-04-21T01:58:44.295Z,29.80
2019-04-21T02:03:57.017Z,24.87
2019-04-21T02:06:27.115Z,25.02
2019-04-21T02:08:58.976Z,24.72
2019-04-21T02:11:31.528Z,28.50
2019-04-21T02:16:34.563Z,23.47
2019-04-21T02:19:04.400Z,23.75
2019-04-21T02:21:35.078Z,25.12
2019-04-21T02:24:34.908Z,25.65
2019-04-21T02:26:41.211Z,23.30
2019-04-21T02:29:23.023Z,25.92
2019-04-21T02:32:11.782Z,25.30
2019-04-21T02:34:27.440Z,27.25
2019-04-21T02:37:33.586Z,23.92
2019-04-21T02:39:27.992Z,25.62
2019-04-21T02:42:01.960Z,35.95
2019-04-21T02:46:54.751Z,27.62
2019-04-21T02:50:06.066Z,27.45
2019-04-21T02:52:11.568Z,26.80
2019-04-21T02:54:53.967Z,29.27
2019-04-21T03:00:00.503Z,26.57
2019-04-21T03:02:36.658Z,26.93
2019-04-21T03:05:11.553Z,29.57
2019-04-21T03:07:41.342Z,25.02
2019-04-21T03:10:20.693Z,26.05
2019-04-21T03:12:59.791Z,27.17
2019-04-21T03:15:39.545Z,24.00
2019-04-21T03:20:31.630Z,26.40
2019-04-21T03:23:03.621Z,20.70
2019-04-21T03:28:11.192Z,26.62
2019-04-21T03:38:20.877Z,25.02
2019-04-21T03:40:39.934Z,24.40
2019-04-21T03:43:17.826Z,20.60
2019-04-21T03:45:42.442Z,24.18
2019-04-21T03:48:20.807Z,30.15
2019-04-21T03:50:47.325Z,25.37
2019-04-21T03:55:52.989Z,30.45
2019-04-21T04:06:12.709Z,23.20
2019-04-21T04:13:56.323Z,26.82
2019-04-21T04:18:58.004Z,26.73
2019-04-21T04:21:27.009Z,22.90
2019-04-21T04:23:55.323Z,22.58
2019-04-21T04:26:27.716Z,21.68
2019-04-21T04:29:04.379Z,27.95
2019-04-21T04:34:10.560Z,24.60
2019-04-21T04:36:53.179Z,24.55
2019-04-21T04:39:26.104Z,23.22
2019-04-21T04:42:12.608Z,36.93
2019-04-21T04:44:46.442Z,23.67
2019-04-21T04:47:10.359Z,26.90
2019-04-21T04:57:14.141Z,24.70
2019-04-21T05:02:33.794Z,22.77
2019-04-21T05:04:54.879Z,21.20
2019-04-21T05:07:23.147Z,21.95
2019-04-21T05:09:55.494Z,23.97
2019-04-21T05:12:24.763Z,22.77
2019-04-21T05:15:04.151Z,22.98
2019-04-21T05:20:08.648Z,20.43
2019-04-21T05:22:39.516Z,26.70
2019-04-21T05:24:53.783Z,22.10
2019-04-21T05:27:36.552Z,23.15
2019-04-21T05:30:17.443Z,27.25
2019-04-21T05:32:52.603Z,20.60
2019-04-21T05:35:43.326Z,20.00
2019-04-21T05:38:22.306Z,25.12
2019-04-21T05:40:51.257Z,25.90
2019-04-21T05:43:35.185Z,21.77
2019-04-21T05:46:13.965Z,22.53
2019-04-21T05:48:39.489Z,20.45
2019-04-21T05:51:03.630Z,22.67
2019-04-21T05:53:41.233Z,23.47
2019-04-21T05:56:16.859Z,19.55
2019-04-21T05:58:49.735Z,23.98
2019-04-21T06:01:30.091Z,25.68
2019-04-21T06:04:07.528Z,25.90
2019-04-21T06:06:47.781Z,22.30
2019-04-21T06:08:59.476Z,21.02
2019-04-21T06:11:30.843Z,22.48
2019-04-21T06:14:08.439Z,21.73
2019-04-21T06:16:43.821Z,23.40
2019-04-21T06:19:15.085Z,22.62
2019-04-21T06:21:38.561Z,26.87
2019-04-21T06:24:12.769Z,25.35
2019-04-21T06:27:00.367Z,22.55
2019-04-21T06:29:15.455Z,26.97
2019-04-21T06:32:12.637Z,22.22
2019-04-21T06:37:18.863Z,25.80
2019-04-21T06:39:39.916Z,29.15
2019-04-21T06:42:02.559Z,23.27
2019-04-21T06:44:38.809Z,22.65
2019-04-21T06:47:21.186Z,24.98
2019-04-21T06:49:40.179Z,25.52
2019-04-21T06:52:30.564Z,24.70
2019-04-21T06:54:46.836Z,27.25
2019-04-21T06:57:16.803Z,29.02
2019-04-21T06:59:43.424Z,29.75
2019-04-21T07:02:40.881Z,25.80
2019-04-21T07:04:54.812Z,26.57
2019-04-21T07:07:22.956Z,24.67
2019-04-21T07:10:03.728Z,25.90
2019-04-21T07:12:37.211Z,24.10
2019-04-21T07:15:03.458Z,27.05
2019-04-21T07:17:38.843Z,25.88
2019-04-21T07:20:15.811Z,26.65
2019-04-21T07:22:48.081Z,28.70
2019-04-21T07:25:22.309Z,27.80
2019-04-21T07:27:56.923Z,25.82
2019-04-21T07:30:31.453Z,25.30
2019-04-21T07:35:31.974Z,25.32
2019-04-21T07:38:02.877Z,27.25
2019-04-21T07:40:33.739Z,24.35
2019-04-21T07:43:06.257Z,29.20
2019-04-21T07:45:35.183Z,27.87
2019-04-21T07:48:19.233Z,27.35
2019-04-21T07:50:57.848Z,28.05
2019-04-21T07:53:52.637Z,29.98
2019-04-21T07:56:07.294Z,26.40
2019-04-21T07:58:59.086Z,29.60
2019-04-21T08:04:03.906Z,26.37
2019-04-21T08:06:38.823Z,29.48
2019-04-21T08:09:09.852Z,27.75
2019-04-21T08:11:36.769Z,25.72
2019-04-21T08:14:07.736Z,25.05
2019-04-21T08:16:56.002Z,33.38
2019-04-21T08:19:18.598Z,25.97
2019-04-21T08:21:54.615Z,28.62
2019-04-21T08:24:19.824Z,29.60
2019-04-21T08:26:51.251Z,27.93
2019-04-21T08:32:06.874Z,25.90
2019-04-21T08:34:28.472Z,28.52
2019-04-21T08:36:56.737Z,27.40
2019-04-21T08:39:42.338Z,29.07
2019-04-21T08:42:03.338Z,26.45
2019-04-21T08:44:43.096Z,30.88
2019-04-21T08:47:07.698Z,33.23
2019-04-21T08:49:41.486Z,26.77
2019-04-21T08:52:21.619Z,31.75
2019-04-21T08:54:49.102Z,24.12
2019-04-21T08:57:37.684Z,25.23
2019-04-21T09:00:01.603Z,25.57
2019-04-21T09:05:05.036Z,30.68
2019-04-21T09:07:41.683Z,28.60
2019-04-21T09:10:10.780Z,26.15
2019-04-21T09:12:41.782Z,28.32
2019-04-21T09:15:14.089Z,26.35
2019-04-21T09:17:32.908Z,27.93
2019-04-21T09:20:17.289Z,28.20
2019-04-21T09:22:47.932Z,28.83
2019-04-21T09:25:23.537Z,24.10
2019-04-21T09:27:47.001Z,28.70
2019-04-21T09:30:04.918Z,26.45
2019-04-21T09:32:37.084Z,28.52
2019-04-21T09:35:10.742Z,25.80
2019-04-21T09:40:12.268Z,27.82
2019-04-21T09:42:55.972Z,25.37
2019-04-21T09:45:22.358Z,27.85
2019-04-21T09:48:02.097Z,23.35
2019-04-21T09:50:26.480Z,27.65
2019-04-21T09:53:05.391Z,29.93
2019-04-21T09:55:40.061Z,25.82
2019-04-21T09:58:15.126Z,26.17
2019-04-21T10:00:46.165Z,22.95
2019-04-21T10:03:12.422Z,23.37
2019-04-21T10:08:12.409Z,28.17
2019-04-21T10:10:44.475Z,25.27
2019-04-21T10:13:17.169Z,25.20
2019-04-21T10:15:52.039Z,25.17
2019-04-21T10:18:25.114Z,22.93
2019-04-21T10:20:57.023Z,23.47
2019-04-21T10:23:29.701Z,25.47
2019-04-21T10:26:00.879Z,26.42
2019-04-21T10:28:31.012Z,24.65
2019-04-21T10:31:02.708Z,24.20
2019-04-21T10:33:32.548Z,25.43
2019-04-21T10:36:04.626Z,22.65
2019-04-21T10:38:44.677Z,23.47
2019-04-21T10:41:11.911Z,29.48
2019-04-21T10:43:43.004Z,30.10
2019-04-21T10:46:13.053Z,21.82
2019-04-21T10:48:48.631Z,20.50
2019-04-21T10:51:19.581Z,20.97
2019-04-21T10:53:55.980Z,25.12
2019-04-21T10:56:31.315Z,24.32
2019-04-21T10:58:58.375Z,22.80
2019-04-21T11:01:31.492Z,26.42
2019-04-21T11:04:07.569Z,23.87
2019-04-21T11:06:39.206Z,26.27
2019-04-21T11:09:13.721Z,24.67
2019-04-21T11:11:46.492Z,25.85
2019-04-21T11:14:15.496Z,26.23
2019-04-21T11:16:47.513Z,21.97
2019-04-21T11:19:18.190Z,21.07
2019-04-21T11:21:49.200Z,23.65
2019-04-21T11:24:18.931Z,23.30
2019-04-21T11:26:49.690Z,20.92
2019-04-21T11:29:19.368Z,24.80
2019-04-21T11:31:49.352Z,22.13
2019-04-21T11:34:21.098Z,23.87
2019-04-21T11:36:54.283Z,20.02
2019-04-21T11:39:35.074Z,22.17
2019-04-21T11:41:57.580Z,23.27
2019-04-21T11:44:27.222Z,19.62
2019-04-21T11:46:58.373Z,27.73
2019-04-21T11:49:31.093Z,24.18
2019-04-21T11:52:01.061Z,22.02
2019-04-21T11:54:32.827Z,23.10
2019-04-21T11:57:11.805Z,21.90
2019-04-21T11:59:35.519Z,18.15
2019-04-21T12:02:07.711Z,19.10
2019-04-21T12:04:37.410Z,18.65
2019-04-21T12:07:07.182Z,20.68
2019-04-21T12:09:37.658Z,20.00
2019-04-21T12:12:07.623Z,18.35
2019-04-21T12:14:39.617Z,17.75
2019-04-21T12:17:10.005Z,20.75
2019-04-21T12:19:44.738Z,19.00
2019-04-21T12:22:21.627Z,21.80
2019-04-21T12:24:47.379Z,18.85
2019-04-21T12:27:20.377Z,17.65
2019-04-21T12:29:51.578Z,21.40
2019-04-21T12:32:33.878Z,18.73
2019-04-21T12:35:12.171Z,17.60
2019-04-21T12:37:48.914Z,19.35
2019-04-21T12:40:18.737Z,20.08
2019-04-21T12:42:48.441Z,16.07
2019-04-21T12:45:19.268Z,15.93
2019-04-21T12:47:50.663Z,17.27
2019-04-21T12:50:21.378Z,16.37
2019-04-21T12:52:53.553Z,16.48
2019-04-21T12:55:30.701Z,16.37
2019-04-21T12:57:59.317Z,14.80
2019-04-21T13:00:29.023Z,16.82
2019-04-21T13:02:59.655Z,12.82
2019-04-21T13:05:33.768Z,15.90
2019-04-21T13:08:03.796Z,14.93
2019-04-21T13:10:33.945Z,14.75
2019-04-21T13:13:06.502Z,16.07
2019-04-21T13:15:37.778Z,15.70
2019-04-21T13:18:10.377Z,14.28
2019-04-21T13:20:40.447Z,14.93
2019-04-21T13:23:12.197Z,15.68
2019-04-21T13:25:43.683Z,14.63
2019-04-21T13:28:14.648Z,13.53
2019-04-21T13:30:48.640Z,13.45
2019-04-21T13:33:20.992Z,11.55
2019-04-21T13:35:51.004Z,14.50
2019-04-21T13:38:30.090Z,14.35
2019-04-21T13:41:12.509Z,11.08
2019-04-21T13:43:27.540Z,14.55
2019-04-21T13:45:57.926Z,10.68
2019-04-21T13:48:28.838Z,11.45
2019-04-21T13:50:59.574Z,10.98
2019-04-21T13:53:29.639Z,11.95
2019-04-21T13:56:00.296Z,12.15
2019-04-21T13:58:32.705Z,13.28
2019-04-21T14:01:03.505Z,13.08
2019-04-21T14:03:37.570Z,11.28
2019-04-21T14:06:08.549Z,14.18
2019-04-21T14:08:52.368Z,12.58
2019-04-21T14:11:31.397Z,14.13
2019-04-21T14:14:03.586Z,10.30
2019-04-21T14:19:01.736Z,11.35
2019-04-21T14:21:33.797Z,11.48
2019-04-21T14:26:34.338Z,8.63
2019-04-21T14:29:04.101Z,9.60
2019-04-21T14:31:34.625Z,9.38
2019-04-21T14:34:04.296Z,9.75
2019-04-21T14:36:34.963Z,12.60
2019-04-21T14:39:08.158Z,9.43
2019-04-21T14:41:40.117Z,9.68
2019-04-21T14:44:13.090Z,11.10
2019-04-21T14:46:47.116Z,10.48
2019-04-21T14:49:19.508Z,9.83
2019-04-21T14:51:54.792Z,9.88
2019-04-21T14:54:36.486Z,14.30
2019-04-21T14:57:07.282Z,9.90
2019-04-21T14:59:37.179Z,10.10
2019-04-21T15:02:07.729Z,12.73
2019-04-21T15:04:41.631Z,11.75
2019-04-21T15:07:12.951Z,10.55
2019-04-21T15:09:46.467Z,12.13
2019-04-21T15:12:18.262Z,9.63
2019-04-21T15:14:47.805Z,12.07
2019-04-21T15:17:19.544Z,11.93
2019-04-21T15:19:53.994Z,11.63
2019-04-21T15:22:20.629Z,12.53
2019-04-21T15:24:50.198Z,12.33
2019-04-21T15:27:20.900Z,11.80
2019-04-21T15:29:51.088Z,11.43
2019-04-21T15:32:22.213Z,12.82
2019-04-21T15:34:56.117Z,20.37
2019-04-21T15:37:26.006Z,13.78
2019-04-21T15:39:56.640Z,11.97
2019-04-21T15:42:26.408Z,9.95
2019-04-21T15:44:58.972Z,10.28
2019-04-21T15:50:03.772Z,10.20
2019-04-21T15:52:29.959Z,10.28
2019-04-21T15:55:05.318Z,11.15
2019-04-21T15:57:40.493Z,12.90
2019-04-21T16:00:25.164Z,11.03
2019-04-21T16:02:55.759Z,13.83
2019-04-21T16:05:26.594Z,11.05
2019-04-21T16:07:58.197Z,11.18
2019-04-21T16:10:39.530Z,13.00
2019-04-21T16:13:01.538Z,12.50
2019-04-21T16:15:34.678Z,11.60
2019-04-21T16:18:05.539Z,11.20
2019-04-21T16:20:37.676Z,16.67
2019-04-21T16:23:08.962Z,12.68
2019-04-21T16:25:41.134Z,11.73
2019-04-21T16:28:15.485Z,16.37
2019-04-21T16:30:44.979Z,12.95
2019-04-21T16:33:15.867Z,11.73
2019-04-21T16:35:47.603Z,15.32
2019-04-21T16:38:17.500Z,13.57
2019-04-21T16:40:54.174Z,12.68
2019-04-21T16:43:20.035Z,12.77
2019-04-21T16:45:50.731Z,12.93
2019-04-21T16:48:21.178Z,13.32
2019-04-21T16:50:51.983Z,14.38
2019-04-21T16:53:26.049Z,12.33
2019-04-21T16:56:11.082Z,13.10
2019-04-21T16:58:48.651Z,12.93
2019-04-21T17:01:24.251Z,14.38
2019-04-21T17:03:58.225Z,13.05
2019-04-21T17:06:29.443Z,12.35
2019-04-21T17:08:59.157Z,12.90
2019-04-21T17:11:31.702Z,11.78
2019-04-21T17:14:01.441Z,13.13
2019-04-21T17:16:56.367Z,10.40
2019-04-21T17:19:13.708Z,12.55
2019-04-21T17:21:37.483Z,10.50
2019-04-21T17:24:08.337Z,13.10
2019-04-21T17:26:41.110Z,16.32
2019-04-21T17:29:12.375Z,13.45
2019-04-21T17:34:16.227Z,12.78
2019-04-21T17:36:43.062Z,10.63
2019-04-21T17:39:13.195Z,11.03
2019-04-21T17:42:04.052Z,13.60
2019-04-21T17:44:15.081Z,10.23
2019-04-21T17:46:53.444Z,13.28
2019-04-21T17:49:18.907Z,11.63
2019-04-21T17:52:09.819Z,10.18
2019-04-21T17:54:54.620Z,10.10
2019-04-21T17:57:45.535Z,12.07
2019-04-21T18:00:14.132Z,13.58
2019-04-21T18:02:47.718Z,10.68
2019-04-21T18:05:26.444Z,11.43
2019-04-21T18:07:54.362Z,9.35
2019-04-21T18:10:29.355Z,12.53
2019-04-21T18:12:50.307Z,9.83
2019-04-21T18:17:46.874Z,13.08
2019-04-21T18:20:19.644Z,8.70
2019-04-21T18:23:02.453Z,9.23
2019-04-21T18:25:45.090Z,10.28
2019-04-21T18:28:06.217Z,10.55
2019-04-21T18:30:58.376Z,9.55
2019-04-21T18:33:34.975Z,14.75
2019-04-21T18:36:04.127Z,11.70
2019-04-21T18:38:57.466Z,9.68
2019-04-21T18:41:09.598Z,10.38
2019-04-21T18:44:10.443Z,9.88
2019-04-21T18:46:35.189Z,15.35
2019-04-21T18:49:06.546Z,10.80
2019-04-21T18:51:55.187Z,9.48
2019-04-21T18:54:37.414Z,9.23
2019-04-21T18:57:05.023Z,12.20
2019-04-21T18:59:35.718Z,10.93
2019-04-21T19:02:06.452Z,11.33
2019-04-21T19:04:33.879Z,12.63
2019-04-21T19:07:18.004Z,13.75
2019-04-21T19:10:10.297Z,15.75
2019-04-21T19:12:26.388Z,11.15
2019-04-21T19:14:56.658Z,16.00
2019-04-21T19:18:05.318Z,12.20
2019-04-21T19:22:32.536Z,17.05
2019-04-21T19:27:31.142Z,9.63
2019-04-21T19:32:37.556Z,12.80
2019-04-21T19:34:57.063Z,11.45
2019-04-21T19:37:25.956Z,14.03
2019-04-21T19:40:05.671Z,10.35
2019-04-21T19:42:37.006Z,10.23
2019-04-21T19:45:14.916Z,19.02
2019-04-21T19:47:48.605Z,15.80
2019-04-21T19:50:26.033Z,14.38
2019-04-21T19:52:43.944Z,12.15
2019-04-21T19:55:07.032Z,12.30
2019-04-21T19:57:36.710Z,11.53
2019-04-21T20:00:11.250Z,13.78
2019-04-21T20:02:40.725Z,11.28
2019-04-21T20:05:25.591Z,13.28
2019-04-21T20:08:05.425Z,14.80
2019-04-21T20:10:59.325Z,22.42
2019-04-21T20:13:45.364Z,19.20
2019-04-21T20:16:07.504Z,14.98
2019-04-21T20:18:32.804Z,16.80
2019-04-21T20:21:22.914Z,12.05
2019-04-21T20:27:43.064Z,10.90
2019-04-21T20:30:34.695Z,12.05
2019-04-21T20:33:05.978Z,11.12
2019-04-21T20:35:46.126Z,10.28
2019-04-21T20:38:01.726Z,14.15
2019-04-21T20:40:30.823Z,9.40
2019-04-21T20:43:23.673Z,17.70
2019-04-21T20:45:49.292Z,13.62
2019-04-21T20:48:08.204Z,13.60
2019-04-21T20:50:41.806Z,10.35
2019-04-21T20:53:14.657Z,10.98
2019-04-21T20:55:51.298Z,12.43
2019-04-21T20:58:15.067Z,11.33
2019-04-21T21:01:07.411Z,13.05
2019-04-21T21:03:24.722Z,11.35
2019-04-21T21:05:49.925Z,11.53
2019-04-21T21:08:31.158Z,10.60
2019-04-21T21:10:53.747Z,10.60
2019-04-21T21:13:36.695Z,10.03
2019-04-21T21:16:11.977Z,11.40
2019-04-21T21:18:54.704Z,12.47
2019-04-21T21:21:06.412Z,14.83
2019-04-21T21:23:40.524Z,11.60
2019-04-21T21:28:42.008Z,14.87
2019-04-21T21:31:13.318Z,16.10
2019-04-21T21:33:59.143Z,16.77
2019-04-21T21:36:20.880Z,17.77
2019-04-21T21:38:54.595Z,16.70
2019-04-21T21:41:16.622Z,16.77
2019-04-21T21:43:39.479Z,22.30
2019-04-21T21:46:27.054Z,19.73
2019-04-21T21:48:54.160Z,26.20
2019-04-21T21:51:20.450Z,26.82
2019-04-21T21:53:45.640Z,25.82
2019-04-21T21:58:46.276Z,34.67
2019-04-21T22:01:24.454Z,33.60
2019-04-21T22:03:59.195Z,29.55
2019-04-21T22:06:30.776Z,23.95
2019-04-21T22:08:56.603Z,23.13
2019-04-21T22:11:29.844Z,22.75
2019-04-21T22:14:04.305Z,22.02
2019-04-21T22:16:43.214Z,20.27
2019-04-21T22:19:18.752Z,23.18
2019-04-21T22:21:53.534Z,23.50
2019-04-21T22:24:10.882Z,27.80
2019-04-21T22:26:36.941Z,21.45
2019-04-21T22:29:09.708Z,22.35
2019-04-21T22:31:41.587Z,25.77
2019-04-21T22:34:16.264Z,18.60
2019-04-21T22:36:57.244Z,22.90
2019-04-21T22:39:36.494Z,23.80
2019-04-21T22:41:53.982Z,22.70
2019-04-21T22:44:20.556Z,28.90
2019-04-21T22:46:58.598Z,25.57
2019-04-21T22:49:23.834Z,26.05
2019-04-21T22:51:55.813Z,30.92
2019-04-21T22:54:32.826Z,28.38
2019-04-21T22:57:05.237Z,31.87
2019-04-21T22:59:32.035Z,31.77
2019-04-21T23:02:06.342Z,28.45
2019-04-21T23:04:41.760Z,27.60
2019-04-21T23:07:10.159Z,29.55
2019-04-21T23:09:37.308Z,24.45
2019-04-21T23:12:07.942Z,24.70
2019-04-21T23:14:47.402Z,20.57
2019-04-21T23:17:42.360Z,21.62
2019-04-21T23:20:05.716Z,24.18
2019-04-21T23:22:32.577Z,24.30
2019-04-21T23:25:09.022Z,20.55
2019-04-21T23:27:33.741Z,22.67
2019-04-21T23:30:13.647Z,21.10
2019-04-21T23:32:35.133Z,24.15
2019-04-21T23:34:54.025Z,22.17
2019-04-21T23:37:25.585Z,24.45
2019-04-21T23:40:01.090Z,22.42
2019-04-21T23:42:31.752Z,21.23
2019-04-21T23:44:58.404Z,21.12
2019-04-21T23:47:39.581Z,27.13
2019-04-21T23:50:05.644Z,21.52
2019-04-21T23:52:29.934Z,21.42
2019-04-21T23:54:59.463Z,27.25
2019-04-21T23:57:34.330Z,20.92
